Decoded Metar for KUSE ( in ) (IATA:) | Meteo·Mobile Aviation Weather
aviador You're here:

KUSE Decoded Metar

in
Report Time2018-12-17 07:10:00
UTC Time2018-12-17 07:17:23
Flight Rules vfr VFR
Wind260° at 08 kt
W.Decomp.*RWY 27: 7.9 kt HW 1.4 kt LCW
RWY 18: 1.4 kt HW 7.9 kt RCW
W.Rank260° ranks 4
Current wind is below 260° avg. (9.6)
Visibility9999 m
Phenomena:N/A
Clouds:N/A
CeilingNone
Temp00°C
Dew Point00°C (100% RH)
AAT-4.9°C
QNH1015 hPa
Raw Report
KUSE 170710Z AUTO 26008KT 7SM CLR M00/00 A2998 RMK AO2=

Extra information for KUSE:More info

Social comments